KJVL/JVL METAR and TAF weather

Enter ICAO airport designator
Station Type Date Time Source
KJVL METAR 2019/08/22 14:45 UTC NOAA

KJVL 221445Z 08012KT 10SM FEW038 SCT250 22/15 A3004


Station Type Date Time Source
KJVL Decoded METAR 2019/08/22 14:45 UTC NOAA

Station name not available
Aug 22, 2019 - 10:45 AM EDT / 2019.08.22 1445 UTC
Wind: from the E (080 degrees) at 14 MPH (12 KT):0
Visibility: 10 mile(s):0
Sky conditions: partly cloudy
Temperature: 71 F (22 C)
Dew Point: 59 F (15 C)
Relative Humidity: 64%
Pressure (altimeter): 30.04 in. Hg (1017 hPa)
ob: KJVL 221445Z 08012KT 10SM FEW038 SCT250 22/15 A3004
cycle: 15

Station Type Date Time Source
KJVL TAF UTC NOAA

Error!

Example: see airport list